createdAt,value
2022-11-13T00:00:02.313Z,5.45
2022-11-13T00:02:28.836Z,5.50
2022-11-13T00:04:55.296Z,5.51
2022-11-13T00:07:21.791Z,5.53
2022-11-13T00:09:48.251Z,5.58
2022-11-13T00:12:14.659Z,5.61
2022-11-13T00:14:41.132Z,5.63
2022-11-13T00:17:07.541Z,5.64
2022-11-13T00:19:33.943Z,5.67
2022-11-13T00:22:00.433Z,5.70
2022-11-13T00:24:26.923Z,5.70
2022-11-13T00:26:53.402Z,5.70
2022-11-13T00:29:19.871Z,5.70
2022-11-13T00:31:46.330Z,5.71
2022-11-13T00:34:45.889Z,5.69
2022-11-13T00:36:59.188Z,5.65
2022-11-13T00:39:25.621Z,5.64
2022-11-13T00:41:52.042Z,5.63
2022-11-13T00:44:18.456Z,5.59
2022-11-13T00:46:44.912Z,5.56
2022-11-13T00:49:11.336Z,5.54
2022-11-13T00:51:37.724Z,5.50
2022-11-13T00:54:04.469Z,5.51
2022-11-13T00:56:30.904Z,5.48
2022-11-13T00:58:57.340Z,5.47
2022-11-13T01:01:23.841Z,5.44
2022-11-13T01:03:50.306Z,5.41
2022-11-13T01:06:20.383Z,5.36
2022-11-13T01:08:47.593Z,5.33
2022-11-13T01:11:16.565Z,5.31
2022-11-13T01:13:45.011Z,5.26
2022-11-13T01:16:12.843Z,5.22
2022-11-13T01:18:41.278Z,5.19
2022-11-13T01:21:11.006Z,5.15
2022-11-13T01:23:37.686Z,5.14
2022-11-13T01:26:21.860Z,5.11
2022-11-13T01:28:48.611Z,5.06
2022-11-13T01:31:17.500Z,5.03
2022-11-13T01:33:45.298Z,5.02
2022-11-13T01:36:14.339Z,4.98
2022-11-13T01:38:40.831Z,4.96
2022-11-13T01:41:07.817Z,4.93
2022-11-13T01:43:38.588Z,4.90
2022-11-13T01:46:07.326Z,4.88
2022-11-13T01:48:39.915Z,4.88
2022-11-13T01:51:12.352Z,4.85
2022-11-13T01:53:39.718Z,4.83
2022-11-13T01:56:06.997Z,4.79
2022-11-13T01:58:33.785Z,4.79
2022-11-13T02:01:00.244Z,4.78
2022-11-13T02:03:26.694Z,4.75
2022-11-13T02:05:53.497Z,4.69
2022-11-13T02:08:19.998Z,4.67
2022-11-13T02:10:47.661Z,4.66
2022-11-13T02:13:14.528Z,4.63
2022-11-13T02:15:41.596Z,4.59
2022-11-13T02:18:08.181Z,4.57
2022-11-13T02:20:47.282Z,4.55
2022-11-13T02:23:19.772Z,4.53
2022-11-13T02:25:47.986Z,4.52
2022-11-13T02:28:14.460Z,4.51
2022-11-13T02:30:40.851Z,4.50
2022-11-13T02:33:30.238Z,4.47
2022-11-13T02:35:56.954Z,4.47
2022-11-13T02:38:23.646Z,4.43
2022-11-13T02:40:50.067Z,4.42
2022-11-13T02:43:16.467Z,4.42
2022-11-13T02:45:42.915Z,4.41
2022-11-13T02:48:09.510Z,4.38
2022-11-13T02:50:37.655Z,4.37
2022-11-13T02:53:04.927Z,4.36
2022-11-13T02:55:31.354Z,4.33
2022-11-13T02:57:57.804Z,4.31
2022-11-13T03:00:24.392Z,4.28
2022-11-13T03:02:50.828Z,4.27
2022-11-13T03:05:17.249Z,4.23
2022-11-13T03:07:43.700Z,4.20
2022-11-13T03:10:11.008Z,4.17
2022-11-13T03:12:37.693Z,4.14
2022-11-13T03:15:05.429Z,4.12
2022-11-13T03:17:32.605Z,4.10
2022-11-13T03:19:59.475Z,4.09
2022-11-13T03:22:26.452Z,4.06
2022-11-13T03:24:52.955Z,4.06
2022-11-13T03:27:19.691Z,4.04
2022-11-13T03:29:46.096Z,4.02
2022-11-13T03:32:12.556Z,4.01
2022-11-13T03:34:39.222Z,4.01
2022-11-13T03:37:05.635Z,4.01
2022-11-13T03:39:32.079Z,4.03
2022-11-13T03:41:58.532Z,4.04
2022-11-13T03:44:24.991Z,4.04
2022-11-13T03:46:51.395Z,4.05
2022-11-13T03:49:17.914Z,4.08
2022-11-13T03:51:44.308Z,4.10
2022-11-13T03:54:10.707Z,4.11
2022-11-13T03:56:37.097Z,4.11
2022-11-13T03:59:03.568Z,4.13
2022-11-13T04:01:30.004Z,4.16
2022-11-13T04:03:56.463Z,4.19
2022-11-13T04:06:22.858Z,4.20
2022-11-13T04:08:49.265Z,4.22
2022-11-13T04:11:15.700Z,4.25
2022-11-13T04:13:42.113Z,4.26
2022-11-13T04:16:08.723Z,4.28
2022-11-13T04:18:35.171Z,4.32
2022-11-13T04:21:03.094Z,4.34
2022-11-13T04:23:29.627Z,4.36
2022-11-13T04:25:56.089Z,4.38
2022-11-13T04:28:22.835Z,4.40
2022-11-13T04:30:49.605Z,4.42
2022-11-13T04:33:16.085Z,4.45
2022-11-13T04:35:45.610Z,4.47
2022-11-13T04:38:12.829Z,4.51
2022-11-13T04:40:40.094Z,4.53
2022-11-13T04:43:06.559Z,4.56
2022-11-13T04:45:32.990Z,4.59
2022-11-13T04:47:59.387Z,4.63
2022-11-13T04:50:26.000Z,4.66
2022-11-13T04:52:52.400Z,4.65
2022-11-13T04:55:18.893Z,4.68
2022-11-13T04:57:45.312Z,4.71
2022-11-13T05:00:12.291Z,4.72
2022-11-13T05:02:38.747Z,4.73
2022-11-13T05:05:05.712Z,4.75
2022-11-13T05:07:32.239Z,4.77
2022-11-13T05:09:58.642Z,4.82
2022-11-13T05:12:25.043Z,4.85
2022-11-13T05:14:51.505Z,4.91
2022-11-13T05:17:17.940Z,4.95
2022-11-13T05:19:44.345Z,5.00
2022-11-13T05:22:10.800Z,5.04
2022-11-13T05:24:37.197Z,5.08
2022-11-13T05:27:03.625Z,5.13
2022-11-13T05:29:30.063Z,5.18
2022-11-13T05:31:56.471Z,5.22
2022-11-13T05:34:22.931Z,5.24
2022-11-13T05:36:49.360Z,5.28
2022-11-13T05:39:15.806Z,5.31
2022-11-13T05:41:42.229Z,5.34
2022-11-13T05:44:08.733Z,5.38
2022-11-13T05:46:35.269Z,5.41
2022-11-13T05:49:02.593Z,5.46
2022-11-13T05:51:31.446Z,5.49
2022-11-13T05:53:58.489Z,5.52
2022-11-13T05:56:33.975Z,5.56
2022-11-13T05:59:01.403Z,5.58
2022-11-13T06:01:30.995Z,5.59
2022-11-13T06:03:58.671Z,5.58
2022-11-13T06:06:26.049Z,5.61
2022-11-13T06:08:54.146Z,5.61
2022-11-13T06:11:23.086Z,5.64
2022-11-13T06:13:50.413Z,5.63
2022-11-13T06:16:19.236Z,5.64
2022-11-13T06:18:46.203Z,5.64
2022-11-13T06:21:15.387Z,5.67
2022-11-13T06:23:42.156Z,5.71
2022-11-13T06:26:23.682Z,5.72
2022-11-13T06:28:50.612Z,5.74
2022-11-13T06:31:20.080Z,5.78
2022-11-13T06:33:46.825Z,5.82
2022-11-13T06:36:15.454Z,5.85
2022-11-13T06:38:43.116Z,5.87
2022-11-13T06:41:12.547Z,5.90
2022-11-13T06:43:39.239Z,5.92
2022-11-13T06:46:10.031Z,5.93
2022-11-13T06:48:36.414Z,5.96
2022-11-13T06:51:07.675Z,5.98
2022-11-13T06:53:34.401Z,6.01
2022-11-13T06:56:00.953Z,6.04
2022-11-13T06:58:27.866Z,6.07
2022-11-13T07:00:54.570Z,6.12
2022-11-13T07:03:25.978Z,6.13
2022-11-13T07:05:52.739Z,6.18
2022-11-13T07:08:19.152Z,6.22
2022-11-13T07:10:53.581Z,6.25
2022-11-13T07:13:20.098Z,6.26
2022-11-13T07:15:46.817Z,6.28
2022-11-13T07:18:13.279Z,6.30
2022-11-13T07:20:40.026Z,6.31
2022-11-13T07:23:06.441Z,6.33
2022-11-13T07:25:33.219Z,6.34
2022-11-13T07:27:59.638Z,6.35
2022-11-13T07:30:26.247Z,6.36
2022-11-13T07:32:52.658Z,6.35
2022-11-13T07:35:19.348Z,6.35
2022-11-13T07:37:45.760Z,6.36
2022-11-13T07:40:12.740Z,6.37
2022-11-13T07:42:39.673Z,6.38
2022-11-13T07:45:06.748Z,6.39
2022-11-13T07:47:33.172Z,6.41
2022-11-13T07:50:05.685Z,6.43
2022-11-13T07:52:34.680Z,6.44
2022-11-13T07:55:01.140Z,6.45
2022-11-13T07:57:27.554Z,6.49
2022-11-13T07:59:54.016Z,6.54
2022-11-13T08:02:25.197Z,6.58
2022-11-13T08:04:53.105Z,6.60
2022-11-13T08:07:19.535Z,6.63
2022-11-13T08:09:45.969Z,6.65
2022-11-13T08:12:12.422Z,6.72
2022-11-13T08:14:38.836Z,6.76
2022-11-13T08:17:05.270Z,6.79
2022-11-13T08:19:31.663Z,6.86
2022-11-13T08:21:58.140Z,6.91
2022-11-13T08:24:24.606Z,6.98
2022-11-13T08:26:51.020Z,7.03
2022-11-13T08:29:17.452Z,7.07
2022-11-13T08:31:43.939Z,7.11
2022-11-13T08:34:10.356Z,7.15
2022-11-13T08:36:36.768Z,7.19
2022-11-13T08:39:03.225Z,7.22
2022-11-13T08:41:29.626Z,7.25
2022-11-13T08:43:56.042Z,7.30
2022-11-13T08:46:22.481Z,7.32
2022-11-13T08:48:48.937Z,7.33
2022-11-13T08:51:15.341Z,7.36
2022-11-13T08:53:41.791Z,7.39
2022-11-13T08:56:08.211Z,7.43
2022-11-13T08:58:34.692Z,7.45
2022-11-13T09:01:01.945Z,7.46
2022-11-13T09:03:28.486Z,7.48
2022-11-13T09:05:54.924Z,7.50
2022-11-13T09:08:21.362Z,7.52
2022-11-13T09:10:47.874Z,7.54
2022-11-13T09:13:14.283Z,7.56
2022-11-13T09:15:40.767Z,7.56
2022-11-13T09:18:07.273Z,7.57
2022-11-13T09:20:33.987Z,7.57
2022-11-13T09:23:05.889Z,7.57
2022-11-13T09:25:37.605Z,7.61
2022-11-13T09:28:05.626Z,7.64
2022-11-13T09:30:32.074Z,7.64
2022-11-13T09:33:00.180Z,7.65
2022-11-13T09:35:36.775Z,7.68
2022-11-13T09:38:11.122Z,7.68
2022-11-13T09:40:40.991Z,7.70
2022-11-13T09:43:15.826Z,7.73
2022-11-13T09:45:42.383Z,7.76
2022-11-13T09:48:23.773Z,7.79
2022-11-13T09:50:51.110Z,7.83
2022-11-13T09:53:17.918Z,7.84
2022-11-13T09:56:21.757Z,7.85
2022-11-13T09:59:13.177Z,7.90
2022-11-13T10:01:49.120Z,7.94
2022-11-13T10:04:21.584Z,7.99
2022-11-13T10:07:00.106Z,8.04
2022-11-13T10:09:54.426Z,8.10
2022-11-13T10:12:21.147Z,8.15
2022-11-13T10:14:51.286Z,8.17
2022-11-13T10:17:26.982Z,8.19
2022-11-13T10:19:57.684Z,8.23
2022-11-13T10:22:36.152Z,8.26
2022-11-13T10:25:22.942Z,8.29
2022-11-13T10:27:58.986Z,8.34
2022-11-13T10:30:25.691Z,8.34
2022-11-13T10:32:52.560Z,8.38
2022-11-13T10:35:45.507Z,8.38
2022-11-13T10:38:23.541Z,8.41
2022-11-13T10:40:49.989Z,8.43
2022-11-13T10:43:24.615Z,8.41
2022-11-13T10:46:00.412Z,8.44
2022-11-13T10:48:35.455Z,8.46
2022-11-13T10:51:04.383Z,8.48
2022-11-13T10:53:39.459Z,8.49
2022-11-13T10:56:30.050Z,8.48
2022-11-13T10:59:17.157Z,8.48
2022-11-13T11:01:45.570Z,8.51
2022-11-13T11:04:27.443Z,8.54
2022-11-13T11:07:19.226Z,8.55
2022-11-13T11:09:43.129Z,8.59
2022-11-13T11:12:16.651Z,8.61
2022-11-13T11:14:58.714Z,8.66
2022-11-13T11:17:47.375Z,8.67
2022-11-13T11:20:21.899Z,8.67
2022-11-13T11:22:57.365Z,8.70
2022-11-13T11:25:38.913Z,8.77
2022-11-13T11:28:19.913Z,8.80
2022-11-13T11:30:52.523Z,8.82
2022-11-13T11:33:23.482Z,8.86
2022-11-13T11:35:56.060Z,8.88
2022-11-13T11:38:31.080Z,8.89
2022-11-13T11:41:13.355Z,8.92
2022-11-13T11:43:45.838Z,8.96
2022-11-13T11:46:22.841Z,8.96
2022-11-13T11:48:49.868Z,8.98
2022-11-13T11:51:19.195Z,9.00
2022-11-13T11:53:58.016Z,9.04
2022-11-13T11:56:40.432Z,9.04
2022-11-13T11:59:13.197Z,9.07
2022-11-13T12:02:05.880Z,9.08
2022-11-13T12:04:52.197Z,9.09
2022-11-13T12:07:55.755Z,9.08
2022-11-13T12:10:45.322Z,9.10
2022-11-13T12:13:25.981Z,9.10
2022-11-13T12:16:09.508Z,9.12
2022-11-13T12:18:54.148Z,9.07
2022-11-13T12:21:23.795Z,9.13
2022-11-13T12:24:01.672Z,9.12
2022-11-13T12:26:59.065Z,9.12
2022-11-13T12:29:44.280Z,9.14
2022-11-13T12:32:46.916Z,9.16
2022-11-13T12:35:19.035Z,9.18
2022-11-13T12:37:51.618Z,9.19
2022-11-13T12:40:44.705Z,9.20
2022-11-13T12:43:29.794Z,9.23
2022-11-13T12:46:00.553Z,9.26
2022-11-13T12:48:41.925Z,9.26
2022-11-13T12:51:13.581Z,9.30
2022-11-13T12:54:06.398Z,9.31
2022-11-13T12:56:33.636Z,9.32
2022-11-13T12:59:33.809Z,9.31
2022-11-13T13:02:40.388Z,9.31
2022-11-13T13:05:15.907Z,9.31
2022-11-13T13:08:18.387Z,9.31
2022-11-13T13:11:19.635Z,9.35
2022-11-13T13:13:46.012Z,9.36
2022-11-13T13:16:21.977Z,9.35
2022-11-13T13:18:48.672Z,9.36
2022-11-13T13:21:17.601Z,9.38
2022-11-13T13:23:46.290Z,9.38
2022-11-13T13:26:15.903Z,9.39
2022-11-13T13:28:46.925Z,9.41
2022-11-13T13:31:20.106Z,9.44
2022-11-13T13:33:54.120Z,9.49
2022-11-13T13:36:36.322Z,9.50
2022-11-13T13:39:20.905Z,9.52
2022-11-13T13:42:09.096Z,9.53
2022-11-13T13:45:14.272Z,9.55
2022-11-13T13:47:45.264Z,9.56
2022-11-13T13:50:16.557Z,9.53
2022-11-13T13:52:43.748Z,9.55
2022-11-13T13:55:19.189Z,9.58
2022-11-13T13:57:45.997Z,9.57
2022-11-13T14:00:13.691Z,9.53
2022-11-13T14:02:51.592Z,9.55
2022-11-13T14:05:32.939Z,9.55
2022-11-13T14:08:00.738Z,9.55
2022-11-13T14:10:28.561Z,9.56
2022-11-13T14:12:56.087Z,9.57
2022-11-13T14:15:24.057Z,9.54
2022-11-13T14:17:50.724Z,9.54
2022-11-13T14:20:18.455Z,9.54
2022-11-13T14:22:51.709Z,9.56
2022-11-13T14:25:27.225Z,9.56
2022-11-13T14:27:53.756Z,9.56
2022-11-13T14:30:26.665Z,9.58
2022-11-13T14:32:53.601Z,9.60
2022-11-13T14:35:25.212Z,9.62
2022-11-13T14:37:52.803Z,9.63
2022-11-13T14:40:22.832Z,9.61
2022-11-13T14:42:55.921Z,9.62
2022-11-13T14:45:24.739Z,9.62
2022-11-13T14:48:20.620Z,9.60
2022-11-13T14:50:59.336Z,9.61
2022-11-13T14:53:31.241Z,9.60
2022-11-13T14:56:01.426Z,9.60
2022-11-13T14:58:29.722Z,9.57
2022-11-13T15:00:57.566Z,9.58
2022-11-13T15:03:24.246Z,9.55
2022-11-13T15:05:50.736Z,9.58
2022-11-13T15:08:17.358Z,9.59
2022-11-13T15:10:43.785Z,9.59
2022-11-13T15:13:15.198Z,9.58
2022-11-13T15:15:41.834Z,9.58
2022-11-13T15:18:16.253Z,9.57
2022-11-13T15:20:43.181Z,9.56
2022-11-13T15:23:13.600Z,9.56
2022-11-13T15:25:40.045Z,9.52
2022-11-13T15:28:06.503Z,9.52
2022-11-13T15:30:32.924Z,9.48
2022-11-13T15:32:59.383Z,9.46
2022-11-13T15:35:25.813Z,9.42
2022-11-13T15:37:52.702Z,9.37
2022-11-13T15:40:19.269Z,9.33
2022-11-13T15:42:45.933Z,9.29
2022-11-13T15:45:16.350Z,9.24
2022-11-13T15:47:43.001Z,9.17
2022-11-13T15:50:14.393Z,9.12
2022-11-13T15:52:45.117Z,9.03
2022-11-13T15:55:29.151Z,8.95
2022-11-13T15:57:56.084Z,8.90
2022-11-13T16:00:25.138Z,8.87
2022-11-13T16:02:56.668Z,8.79
2022-11-13T16:05:25.228Z,8.73
2022-11-13T16:07:52.834Z,8.66
2022-11-13T16:10:20.534Z,8.61
2022-11-13T16:12:47.020Z,8.57
2022-11-13T16:15:16.580Z,8.51
2022-11-13T16:17:45.143Z,8.46
2022-11-13T16:20:15.308Z,8.45
2022-11-13T16:22:42.017Z,8.43
2022-11-13T16:25:14.279Z,8.39
2022-11-13T16:27:40.838Z,8.37
2022-11-13T16:30:14.097Z,8.34
2022-11-13T16:32:40.486Z,8.29
2022-11-13T16:35:08.433Z,8.27
2022-11-13T16:37:35.360Z,8.26
2022-11-13T16:40:01.876Z,8.22
2022-11-13T16:42:31.017Z,8.16
2022-11-13T16:44:57.594Z,8.12
2022-11-13T16:47:25.450Z,8.09
2022-11-13T16:49:52.551Z,8.05
2022-11-13T16:52:19.092Z,8.00
2022-11-13T16:54:45.601Z,7.95
2022-11-13T16:57:13.266Z,7.92
2022-11-13T16:59:40.407Z,7.88
2022-11-13T17:02:17.376Z,7.83
2022-11-13T17:04:44.360Z,7.82
2022-11-13T17:07:13.032Z,7.78
2022-11-13T17:09:45.867Z,7.76
2022-11-13T17:12:12.308Z,7.75
2022-11-13T17:14:39.060Z,7.72
2022-11-13T17:17:07.237Z,7.71
2022-11-13T17:19:33.719Z,7.69
2022-11-13T17:22:00.468Z,7.65
2022-11-13T17:24:26.977Z,7.64
2022-11-13T17:26:53.375Z,7.62
2022-11-13T17:29:19.834Z,7.60
2022-11-13T17:31:46.269Z,7.58
2022-11-13T17:34:12.671Z,7.55
2022-11-13T17:36:39.098Z,7.52
2022-11-13T17:39:05.522Z,7.48
2022-11-13T17:41:31.948Z,7.45
2022-11-13T17:44:01.269Z,7.39
2022-11-13T17:46:28.048Z,7.37
2022-11-13T17:48:54.457Z,7.31
2022-11-13T17:51:21.029Z,7.29
2022-11-13T17:53:47.431Z,7.27
2022-11-13T17:56:14.222Z,7.24
2022-11-13T17:58:45.211Z,7.20
2022-11-13T18:01:22.150Z,7.16
2022-11-13T18:03:54.280Z,7.13
2022-11-13T18:06:21.121Z,7.11
2022-11-13T18:08:47.537Z,7.08
2022-11-13T18:11:19.315Z,7.05
2022-11-13T18:13:49.997Z,7.01
2022-11-13T18:16:19.547Z,6.99
2022-11-13T18:18:51.236Z,6.94
2022-11-13T18:21:22.729Z,6.89
2022-11-13T18:23:50.014Z,6.86
2022-11-13T18:26:18.543Z,6.81
2022-11-13T18:28:45.141Z,6.77
2022-11-13T18:31:15.006Z,6.73
2022-11-13T18:33:41.645Z,6.71
2022-11-13T18:36:08.851Z,6.67
2022-11-13T18:38:35.513Z,6.63
2022-11-13T18:41:10.737Z,6.62
2022-11-13T18:43:37.683Z,6.61
2022-11-13T18:46:06.916Z,6.63
2022-11-13T18:48:41.642Z,6.64
2022-11-13T18:51:14.628Z,6.64
2022-11-13T18:53:41.925Z,6.65
2022-11-13T18:56:11.182Z,6.65
2022-11-13T18:58:43.481Z,6.66
2022-11-13T19:01:15.083Z,6.65
2022-11-13T19:04:08.172Z,6.65
2022-11-13T19:06:31.189Z,6.60
2022-11-13T19:08:58.994Z,6.57
2022-11-13T19:11:26.479Z,6.54
2022-11-13T19:13:53.502Z,6.52
2022-11-13T19:16:23.139Z,6.49
2022-11-13T19:18:52.356Z,6.47
2022-11-13T19:21:19.882Z,6.44
2022-11-13T19:23:46.273Z,6.39
2022-11-13T19:26:12.762Z,6.37
2022-11-13T19:28:39.263Z,6.37
2022-11-13T19:31:12.976Z,6.36
2022-11-13T19:33:39.781Z,6.36
2022-11-13T19:36:08.755Z,6.36
2022-11-13T19:38:35.863Z,6.35
2022-11-13T19:41:02.909Z,6.35
2022-11-13T19:43:33.742Z,6.36
2022-11-13T19:46:08.178Z,6.34
2022-11-13T19:48:36.091Z,6.36
2022-11-13T19:51:09.629Z,6.37
2022-11-13T19:53:36.846Z,6.37
2022-11-13T19:56:03.878Z,6.42
2022-11-13T19:58:30.853Z,6.44
2022-11-13T20:00:57.854Z,6.44
2022-11-13T20:03:26.011Z,6.49
2022-11-13T20:05:59.251Z,6.52
2022-11-13T20:08:28.123Z,6.54
2022-11-13T20:11:01.392Z,6.58
2022-11-13T20:13:27.842Z,6.59
2022-11-13T20:15:54.742Z,6.61
2022-11-13T20:18:21.182Z,6.62
2022-11-13T20:20:51.799Z,6.63
2022-11-13T20:23:21.166Z,6.64
2022-11-13T20:25:54.681Z,6.67
2022-11-13T20:28:21.433Z,6.67
2022-11-13T20:30:47.851Z,6.68
2022-11-13T20:33:18.482Z,6.69
2022-11-13T20:35:53.800Z,6.68
2022-11-13T20:38:20.214Z,6.69
2022-11-13T20:40:46.616Z,6.68
2022-11-13T20:43:13.010Z,6.68
2022-11-13T20:45:39.420Z,6.68
2022-11-13T20:48:05.949Z,6.66
2022-11-13T20:50:35.677Z,6.64
2022-11-13T20:53:02.111Z,6.66
2022-11-13T20:55:28.578Z,6.64
2022-11-13T20:57:54.999Z,6.67
2022-11-13T21:00:21.547Z,6.68
2022-11-13T21:02:48.177Z,6.67
2022-11-13T21:05:15.360Z,6.67
2022-11-13T21:07:41.775Z,6.68
2022-11-13T21:10:08.593Z,6.67
2022-11-13T21:12:35.132Z,6.69
2022-11-13T21:15:01.664Z,6.69
2022-11-13T21:17:28.073Z,6.70
2022-11-13T21:19:57.580Z,6.70
2022-11-13T21:22:24.255Z,6.70
2022-11-13T21:24:50.664Z,6.70
2022-11-13T21:27:17.102Z,6.70
2022-11-13T21:29:43.555Z,6.71
2022-11-13T21:32:09.970Z,6.70
2022-11-13T21:34:36.413Z,6.71
2022-11-13T21:37:02.851Z,6.70
2022-11-13T21:39:29.374Z,6.70
2022-11-13T21:41:55.765Z,6.69
2022-11-13T21:44:22.200Z,6.68
2022-11-13T21:46:48.624Z,6.67
2022-11-13T21:49:15.057Z,6.67
2022-11-13T21:51:42.872Z,6.65
2022-11-13T21:54:09.691Z,6.65
2022-11-13T21:56:37.721Z,6.63
2022-11-13T21:59:05.120Z,6.61
2022-11-13T22:01:37.771Z,6.60
2022-11-13T22:04:05.233Z,6.60
2022-11-13T22:06:33.272Z,6.58
2022-11-13T22:09:02.017Z,6.56
2022-11-13T22:11:30.925Z,6.54
2022-11-13T22:13:57.691Z,6.54
2022-11-13T22:16:25.293Z,6.54
2022-11-13T22:18:55.836Z,6.54
2022-11-13T22:21:23.337Z,6.53
2022-11-13T22:23:50.216Z,6.53
2022-11-13T22:26:17.417Z,6.52
2022-11-13T22:28:44.966Z,6.51
2022-11-13T22:31:16.975Z,6.50
2022-11-13T22:33:47.807Z,6.49
2022-11-13T22:36:18.454Z,6.48
2022-11-13T22:38:44.938Z,6.47
2022-11-13T22:41:22.568Z,6.48
2022-11-13T22:44:00.683Z,6.48
2022-11-13T22:46:29.162Z,6.46
2022-11-13T22:48:57.429Z,6.45
2022-11-13T22:51:31.853Z,6.45
2022-11-13T22:54:00.456Z,6.44
2022-11-13T22:56:29.329Z,6.46
2022-11-13T22:58:57.087Z,6.46
2022-11-13T23:01:32.132Z,6.45
2022-11-13T23:04:01.186Z,6.44
2022-11-13T23:06:29.326Z,6.44
2022-11-13T23:08:55.792Z,6.43
2022-11-13T23:11:26.432Z,6.42
2022-11-13T23:13:55.170Z,6.44
2022-11-13T23:16:22.804Z,6.43
2022-11-13T23:18:50.416Z,6.43
2022-11-13T23:21:17.574Z,6.41
2022-11-13T23:23:44.194Z,6.41
2022-11-13T23:26:11.481Z,6.39
2022-11-13T23:28:39.431Z,6.38
2022-11-13T23:31:06.129Z,6.34
2022-11-13T23:33:32.553Z,6.34
2022-11-13T23:35:59.347Z,6.32
2022-11-13T23:38:25.951Z,6.31
2022-11-13T23:40:54.464Z,6.29
2022-11-13T23:43:21.161Z,6.26
2022-11-13T23:45:47.574Z,6.23
2022-11-13T23:48:14.012Z,6.18
2022-11-13T23:50:40.483Z,6.16
2022-11-13T23:53:06.888Z,6.12
2022-11-13T23:55:33.436Z,6.08
2022-11-13T23:58:01.065Z,6.04
